• Join FlightAware (Why Join?)
  • Login
  • US Flag 
09:37PM EDT


 

Airport Tracker/Info


-or-


 

Live Flight TrackerFlight Track Log ✈ N983CE ✈ 06-May-2013 ✈ KHAO - KVNY

Flight Track Log - Related Links

Times and Time Zones

All times are in EDT time to prevent confusion due to time zone crossing. See the N983CE flight status page for this flight to view local times or setup timezone preferences in your user account.

Time Position Orientation Groundspeed Altitude Reporting Facility
EDT Latitude Longitude Course Direction KTS MPH feet Rate Location/Type
11:40AM 39.3500 -84.4833 41° Northeast 157 181 2,200  Level Cincinnati TRACON
11:42AM 39.4069 -84.4197 41° Northeast 281 323 6,800 2,880 Climbing Indianapolis Center
11:43AM 39.4331 -84.5169 289° West 288 331 10,000 2,580 Climbing Indianapolis Center
11:44AM 39.4661 -84.6097 295° West 282 325 12,100 2,460 Climbing Indianapolis Center
11:45AM 39.5269 -84.6953 313° West 316 364 15,100 2,160 Climbing Indianapolis Center
11:46AM 39.5475 -84.8094 283° West 331 381 16,600 2,040 Climbing Indianapolis Center
11:47AM 39.5614 -84.9331 278° West 334 384 19,300 2,160 Climbing Indianapolis Center
11:49AM 39.5864 -85.1806 278° West 354 407 23,100 1,920 Climbing Chicago Center
11:51AM 39.5441 -85.4091 257° West  Level FlightAware Approximate
11:52AM 39.6206 -85.5358 257° West 366 421 28,400  Level Kansas City Center
11:52AM 39.6264 -85.5781 280° West 375 432 28,900 1,320 Climbing Chicago Center
11:53AM 39.6444 -85.7444 278° West 387 445 30,400 1,560 Climbing Indianapolis Center
11:55AM 39.6697 -85.9939 278° West 403 464 33,200 1,500 Climbing Kansas City Center
11:55AM 39.6722 -86.0314 275° West 400 460 33,600 960 Climbing Indianapolis Center
11:57AM 39.6950 -86.2769 277° West 397 457 35,300 960 Climbing Kansas City Center
11:57AM 39.7003 -86.3328 277° West 398 458 35,600 420 Climbing Indianapolis Center
11:58AM 39.7133 -86.4731 277° West 406 467 36,000 120 Climbing Indianapolis Center
12:00PM 39.7458 -86.8217 277° West 452 520 36,000  Level Indianapolis Center
12:01PM 39.7606 -86.9881 277° West 463 533 36,000  Level Indianapolis Center
12:02PM 39.7744 -87.1564 276° West 468 539 36,000  Level Indianapolis Center
12:04PM 39.7983 -87.4408 276° West 471 542 36,000 240 Level Kansas City Center
12:05PM 39.8119 -87.6094 276° West 469 540 36,700 660 Climbing Kansas City Center
12:05PM 39.8175 -87.6597 278° West 466 536 37,000 600 Climbing Indianapolis Center
12:07PM 39.8378 -87.9331 276° West 450 518 38,000 360 Climbing Kansas City Center
12:08PM 39.8511 -88.0969 276° West 451 519 38,000  Level Kansas City Center
12:09PM 39.8589 -88.1775 277° West 454 522 38,000  Level Indianapolis Center
12:09PM 39.8642 -88.2656 274° West 458 527 38,000  Level Kansas City Center
12:10PM 39.8797 -88.4639 276° West 459 528 38,000  Level Kansas City Center
12:13PM 39.9106 -88.8767 276° West 466 536 38,000  Level Indianapolis Center
12:13PM 39.9175 -88.9658 276° West 463 533 38,000  Level Kansas City Center
12:15PM 39.9394 -89.2981 275° West 459 528 38,000  Level Kansas City Center
12:16PM 39.9511 -89.4647 275° West 460 529 38,000  Level Kansas City Center
12:19PM 39.9179 -89.7719 262° West  Level FlightAware Approximate
12:19PM 39.9844 -89.9975 262° West 460 529 38,000  Level Kansas City Center
12:21PM 39.9944 -90.1636 275° West 460 529 38,000  Level Kansas City Center
12:22PM 40.0044 -90.3289 275° West 457 526 38,000  Level Kansas City Center
12:23PM 40.0139 -90.4917 274° West 452 520 38,000  Level Kansas City Center
12:24PM 40.0233 -90.6556 274° West 451 519 38,000  Level Kansas City Center
12:25PM 40.0325 -90.8192 274° West 452 520 38,000  Level Kansas City Center
12:27PM 40.0514 -91.1794 274° West 453 521 38,000  Level Kansas City Center
12:29PM 40.0689 -91.5078 274° West 456 525 38,000  Level Kansas City Center
12:30PM 40.0758 -91.6714 273° West 455 524 38,000  Level Kansas City Center
12:31PM 40.0833 -91.8347 273° West 455 524 38,000  Level Kansas City Center
12:33PM 40.0912 -92.0811 272° West  Level FlightAware Approximate
12:33PM 40.0994 -92.1928 272° West 451 519 38,100  Level Kansas City Center
12:34PM 40.1061 -92.3475 273° West 437 503 39,100 720 Climbing Kansas City Center
12:35PM 40.1139 -92.5525 273° West 408 470 40,000 420 Climbing Minneapolis Center
12:36PM 40.1192 -92.6361 275° West 402 463 40,000  Level Kansas City Center
12:39PM 40.1325 -93.0603 272° West 414 476 40,000  Level Minneapolis Center
12:39PM 40.1342 -93.0897 274° West 415 478 40,000  Level Kansas City Center
12:40PM 40.1381 -93.2686 272° West 414 476 40,000  Level Kansas City Center
12:41PM 40.1442 -93.4183 273° West 413 475 40,000  Level Kansas City Center
12:43PM 40.1542 -93.7178 273° West 415 478 40,000  Level Kansas City Center
12:44PM 40.1589 -93.8658 272° West 413 475 40,000  Level Kansas City Center
12:46PM 40.1644 -94.1317 272° West 410 472 40,000  Level Minneapolis Center
12:46PM 40.1658 -94.1839 272° West 406 467 40,000  Level Kansas City Center
12:47PM 40.1700 -94.3236 272° West 403 464 40,000  Level Kansas City Center
12:48PM 40.1700 -94.4228 270° West 403 464 40,000  Level Minneapolis Center
12:50PM 40.1781 -94.7375 272° West 399 459 40,000  Level Minneapolis Center
12:51PM 40.1819 -94.8814 272° West 398 458 40,000  Level Minneapolis Center
12:52PM 40.1850 -95.0258 272° West 397 457 40,000  Level Minneapolis Center
12:53PM 40.1881 -95.1722 272° West 399 459 40,000  Level Minneapolis Center
12:54PM 40.1889 -95.3233 270° West 406 467 40,000  Level Minneapolis Center
12:55PM 40.1917 -95.5000 271° West 407 468 40,000  Level Minneapolis Center
12:58PM 40.1956 -95.8394 271° West 407 468 40,000  Level Kansas City Center
12:58PM 40.1983 -95.9458 272° West 410 472 40,000  Level Minneapolis Center
01:00PM 40.1989 -96.2419 270° West 409 471 40,000  Level Minneapolis Center
01:03PM 40.1836 -96.6219 267° West 412 474 40,000  Level Kansas City Center
01:04PM 40.1811 -96.7172 268° West 408 470 40,000  Level Minneapolis Center
01:07PM 40.1592 -97.1603 266° West 407 468 40,000 180 Level Minneapolis Center
01:09PM 40.0972 -97.5161 257° West 387 445 41,000 300 Climbing Kansas City Center
01:10PM 40.0872 -97.5817 259° West 390 449 41,000  Level Minneapolis Center
01:12PM 40.0358 -97.8914 258° West 395 455 41,000  Level Minneapolis Center
01:13PM 40.0122 -98.0347 258° West 401 461 41,000  Level Minneapolis Center
01:16PM 39.9610 -98.2828 255° West  Level FlightAware Approximate
01:17PM 39.9125 -98.6156 255° West 413 475 41,000  Level Denver Center
01:18PM 39.8875 -98.7611 257° West 412 474 41,000  Level Denver Center
01:20PM 39.8142 -98.9811 258° West  Level FlightAware Approximate
01:20PM 39.8364 -99.0511 258° West 411 473 41,000  Level Denver Center
01:22PM 39.7789 -99.3686 257° West 410 472 41,000  Level Minneapolis Center
01:24PM 39.7416 -99.5557 256° West  Level FlightAware Approximate
01:25PM 39.6994 -99.8000 255° West 407 468 41,000  Level Denver Center
01:26PM 39.6736 -99.9464 257° West 411 473 41,000  Level Denver Center
01:27PM 39.6436 -100.1058 256° West 409 471 41,000  Level Denver Center
01:29PM 39.6014 -100.2883 253° West  Level FlightAware Approximate
01:29PM 39.5872 -100.4022 253° West 408 470 41,000  Level Denver Center
01:31PM 39.5409 -100.5347 255° West  Level FlightAware Approximate
01:31PM 39.5390 -100.5717 250° West  Level FlightAware Approximate
01:31PM 39.5314 -100.6981 250° West 407 468 41,000  Level Denver Center
01:32PM 39.5047 -100.8339 256° West 407 468 41,000  Level Denver Center
01:34PM 39.4705 -100.9939 255° West  Level FlightAware Approximate
01:34PM 39.4472 -101.1261 255° West 406 467 41,000  Level Denver Center
01:36PM 39.3897 -101.4158 256° West 400 460 40,600 -360 Descending Denver Center
01:38PM 39.3614 -101.5547 255° West 413 475 40,000 -300 Descending Denver Center
01:39PM 39.3303 -101.7142 256° West 411 473 40,000  Level Denver Center
01:40PM 39.3017 -101.8511 255° West 402 463 40,000  Level Denver Center
01:42PM 39.2422 -102.1394 255° West 402 463 40,000  Level Denver Center
01:44PM 39.1719 -102.3888 250° West  Level FlightAware Approximate
01:46PM 39.1211 -102.7153 254° West 404 465 40,000  Level Denver Center
01:48PM 39.0583 -103.0047 254° West 403 464 40,000  Level Denver Center
01:49PM 39.0294 -103.1456 255° West 403 464 40,000  Level Denver Center
01:50PM 38.9931 -103.3097 254° West 407 468 40,000  Level Denver Center
01:51PM 38.9476 -103.3480 254° West  Level FlightAware Approximate
01:51PM 38.9569 -103.4739 254° West 406 467 40,000  Level Denver Center
01:52PM 38.9166 -103.4853 254° West  Level FlightAware Approximate
01:52PM 38.9261 -103.6161 254° West 408 470 40,000  Level Denver Center
01:54PM 38.8718 -103.7882 248° West  Level FlightAware Approximate
01:54PM 38.8636 -103.8947 248° West 403 464 40,000  Level Denver Center
01:55PM 38.8336 -104.0278 254° West 403 464 40,000  Level Denver Center
01:56PM 38.8047 -104.1506 253° West 403 464 40,000  Level Denver Center
01:57PM 38.7686 -104.3128 254° West 401 461 40,000  Level Denver Center
01:59PM 38.7253 -104.4644 250° West  Level FlightAware Approximate
01:59PM 38.7053 -104.5892 250° West 401 461 40,000  Level Denver Center
02:02PM 38.6143 -104.8624 253° West  Level FlightAware Approximate
02:03PM 38.6008 -105.0356 253° West 411 473 40,000  Level Denver Center
02:04PM 38.5672 -105.1761 253° West 410 472 40,000  Level Denver Center
02:05PM 38.5331 -105.3175 253° West 412 474 40,000  Level Denver Center
02:06PM 38.5003 -105.4583 253° West 411 473 40,000  Level Denver Center
02:08PM 38.4317 -105.7414 253° West 413 475 40,000  Level Denver Center
02:10PM 38.3429 -105.9709 253° West  Level FlightAware Approximate
02:10PM 38.3578 -106.0414 253° West 415 478 40,000  Level Denver Center
02:12PM 38.2878 -106.3264 253° West 416 479 40,000  Level Denver Center
02:13PM 38.2525 -106.4675 252° West 416 479 40,000  Level Denver Center
02:15PM 38.1992 -106.6561 250° West  Level FlightAware Approximate
02:18PM 38.0581 -107.2297 250° West 407 468 40,000  Level Denver Center
02:19PM 38.0244 -107.3617 252° West 410 472 40,000  Level Denver Center
02:21PM 37.9615 -107.5171 249° West  Level FlightAware Approximate
02:21PM 37.9483 -107.6464 249° West 411 473 40,000  Level Denver Center
02:22PM 37.9371 -107.5872 251° West  Level FlightAware Approximate
02:22PM 37.9078 -107.7742 248° West 409 471 40,000  Level Denver Center
02:23PM 37.9014 -107.7207 251° West  Level FlightAware Approximate
02:24PM 37.8655 -107.8540 250° West  Level FlightAware Approximate
02:24PM 37.8603 -107.9217 248° West  Level FlightAware Approximate
02:24PM 37.8228 -108.0511 248° West 408 470 40,000  Level Denver Center
02:25PM 37.7892 -108.1564 248° West 408 470 40,000  Level Denver Center
02:27PM 37.7369 -108.3242 249° West 402 463 40,000  Level Denver Center
02:28PM 37.6908 -108.4717 248° West 402 463 40,000  Level Denver Center
02:30PM 37.6044 -108.7456 248° West 407 468 40,000  Level Denver Center
02:31PM 37.5642 -108.8703 248° West 404 465 40,000  Level Denver Center
02:33PM 37.4775 -109.1378 248° West 402 463 40,000  Level Denver Center
02:35PM 37.3925 -109.3680 245° Southwest  Level FlightAware Approximate
02:36PM 37.3439 -109.5500 245° Southwest 403 464 40,000  Level Los Angeles Center
02:37PM 37.3022 -109.6744 247° West 397 457 40,000  Level Denver Center
02:38PM 37.2483 -109.8383 248° West 399 459 40,000  Level Denver Center
02:40PM 37.1658 -110.0858 247° West 405 466 40,000  Level Denver Center
02:42PM 37.0816 -110.2552 247° West  Level FlightAware Approximate
02:43PM 37.0344 -110.4772 247° West 402 463 40,000  Level Denver Center
02:45PM 36.9339 -110.7658 247° West 408 470 40,000  Level Los Angeles Center
02:46PM 36.8925 -110.8944 248° West 404 465 40,000  Level Denver Center
02:48PM 36.7992 -111.1542 246° West 405 466 40,000  Level Los Angeles Center
02:49PM 36.7780 -111.1497 247° West  Level FlightAware Approximate
02:50PM 36.7413 -111.2988 243° Southwest  Level FlightAware Approximate
02:50PM 36.7142 -111.4081 243° Southwest 403 464 40,000  Level Denver Center
02:51PM 36.6603 -111.5611 246° West 403 464 40,000  Level Denver Center
02:53PM 36.6161 -111.6875 247° West 400 460 40,000  Level Denver Center
02:55PM 36.5687 -111.8125 245° Southwest  Level FlightAware Approximate
02:56PM 36.4808 -112.0658 245° Southwest 394 453 40,000  Level Los Angeles Center
02:57PM 36.4261 -112.2178 246° West 400 460 40,000  Level Los Angeles Center
02:58PM 36.3814 -112.3442 246° West 399 459 40,000  Level Los Angeles Center
02:59PM 36.3367 -112.4689 246° West 397 457 40,000  Level Los Angeles Center
03:00PM 36.2911 -112.5942 246° West 397 457 40,000  Level Los Angeles Center
03:01PM 36.2450 -112.7189 245° Southwest 397 457 40,000  Level Los Angeles Center
03:02PM 36.1997 -112.8433 246° West 396 456 40,000  Level Los Angeles Center
03:03PM 36.1539 -112.9661 245° Southwest 396 456 40,000  Level Los Angeles Center
03:04PM 36.0986 -113.1156 245° Southwest 395 455 40,000  Level Los Angeles Center
03:05PM 36.0511 -113.2417 245° Southwest 399 459 40,000  Level Los Angeles Center
03:06PM 36.0042 -113.3711 246° West 405 466 40,000  Level Los Angeles Center
03:07PM 35.9606 -113.4900 246° West 401 461 40,000  Level Los Angeles Center
03:09PM 35.8672 -113.7400 245° Southwest 392 451 40,000 -120 Level Los Angeles Center
03:10PM 35.8117 -113.8856 245° Southwest 391 450 39,800 -900 Descending Los Angeles Center
03:12PM 35.7410 -114.0641 244° Southwest  Level FlightAware Approximate
03:14PM 35.6275 -114.3656 245° Southwest 379 436 35,600  Level Los Angeles Center
03:15PM 35.5850 -114.4764 245° Southwest 361 415 34,400 -780 Descending Los Angeles Center
03:16PM 35.5469 -114.5797 246° West 336 387 34,000 -240 Descending Los Angeles Center
03:17PM 35.5006 -114.6967 244° Southwest 319 367 34,000  Level Los Angeles Center
03:18PM 35.4597 -114.8025 245° Southwest 338 389 34,000  Level Los Angeles Center
03:19PM 35.4015 -114.9129 244° Southwest  Level FlightAware Approximate
03:19PM 35.4178 -114.9092 244° Southwest 344 396 34,000  Level Los Angeles Center
03:20PM 35.3543 -115.0346 245° Southwest  Level FlightAware Approximate
03:21PM 35.3358 -115.1206 245° Southwest 343 395 34,000  Level Los Angeles Center
03:22PM 35.2950 -115.2267 245° Southwest 344 396 34,000  Level Los Angeles Center
03:25PM 35.2036 -115.4556 244° Southwest 339 390 34,000 -240 Level Los Angeles Center
03:26PM 35.1551 -115.5747 244° Southwest  Level FlightAware Approximate
03:26PM 35.1658 -115.5528 270° West 337 388 33,400  Level Los Angeles Center
03:27PM 35.1239 -115.6550 244° Southwest 336 387 32,500 -1,560 Descending Los Angeles Center
03:29PM 35.0292 -115.8844 243° Southwest  Level FlightAware Approximate
03:33PM 34.8942 -116.4167 249° West  Level Estimated
03:33PM 34.8636 -116.3014 249° West 333 383 22,100  Level Los Angeles Center
03:35PM 34.8089 -116.4910 265° West  Level Estimated
03:36PM 34.7571 -116.7339 260° West  Level FlightAware Approximate
03:36PM 34.7800 -116.6378 260° West 364 419 20,000  Level Los Angeles Center
03:37PM 34.7500 -116.8655 270° West  Level FlightAware Approximate
03:37PM 34.7664 -116.7825 264° West 359 413 20,000  Level Los Angeles Center
03:38PM 34.7536 -116.9028 263° West 358 412 20,000  Level Los Angeles Center
03:40PM 34.7304 -117.0792 261° West  Level FlightAware Approximate
03:40PM 34.7294 -117.1400 261° West 354 407 20,000  Level Los Angeles Center
03:41PM 34.7164 -117.2586 262° West 353 406 18,700 -1,320 Descending Los Angeles Center
03:42PM 34.5527 -117.3629 260° West  Level Estimated
03:42PM 34.7044 -117.3800 263° West 358 412 17,300  Level Los Angeles Center
03:44PM 34.6806 -117.5360 260° West  Level FlightAware Approximate
03:46PM 34.6469 -117.8717 248° West 340 391 12,700  Level Los Angeles Center
03:47PM 34.6308 -117.9639 258° West 282 325 11,200 -1,140 Descending Los Angeles Center
03:49PM 34.6091 -118.0956 259° West  Level FlightAware Approximate
03:51PM 34.5359 -118.4282 239° Southwest  Level FlightAware Approximate
03:51PM 34.5842 -118.2517 180° South 267 307 8,000  Level Los Angeles Center
03:52PM 34.5116 -118.5486 248° West  Level FlightAware Approximate
03:52PM 34.5672 -118.3497 258° West 252 290 7,900  Level Los Angeles Center
03:53PM 34.5492 -118.4289 255° West 250 288 7,900  Level Los Angeles Center
03:54PM 34.5311 -118.5111 255° West 252 290 8,000 -60 Climbing Los Angeles Center
03:55PM 34.4897 -118.5722 231° Southwest 251 289 7,800 -540 Descending Los Angeles Center
03:56PM 34.2000 -118.4833 180° South  Level FlightAware Approximate
03:56PM 34.4333 -118.5575 168° South 204 235 7,000  Level Los Angeles Center
03:58PM 34.3333 -118.5167 161° South 198 228 4,500 -1,440 Descending Southern California TRACON
04:00PM 34.2500 -118.5000 171° South 140 161 1,900 -900 Descending Southern California TRACON
04:01PM 34.2022 -118.4906 171° South 149 171 1,400 -360 Descending Los Angeles Center
04:03PM 34.2000 -118.4833 180° South  Level FlightAware Approximate
04:10PM 34.2098 -118.4900 180° South  Level Estimated
04:11PM 34.2098 -118.4900 180° South  Level Estimated
04:12PM 34.2098 -118.4900 180° South  Level Estimated
04:13PM 34.2098 -118.4900 180° South  Level Estimated
04:14PM 34.2098 -118.4900 180° South  Level Estimated